Time;durP1;ratioP1;P1;durP2;ratioP2;P2;SDS_P1;SDS_P2;PMS_P1;PMS_P2;Temp;Humidity;BMP_temperature;BMP_pressure;BME280_temperature;BME280_humidity;BME280_pressure;Samples;Min_cycle;Max_cycle;Signal;HPM_P1;HPM_P2
2021/09/23 00:01:12;;;;;;;12.18;8.73;;;;;;;10.43;76.88;101506.34;1824500;78;21725;-83
2021/09/23 00:06:14;;;;;;;11.20;7.83;;;;;;;10.45;77.43;101512.98;1766066;81;21066;-83
2021/09/23 00:08:40;;;;;;;10.58;8.15;;;;;;;10.48;77.54;101507.41;1766096;81;21579;-83
2021/09/23 00:11:08;;;;;;;17.10;8.00;;;;;;;10.54;77.89;101508.06;1769291;80;21210;-83
2021/09/23 00:13:39;;;;;;;15.75;8.53;;;;;;;10.58;77.95;101498.12;1773853;80;22633;-83
2021/09/23 00:16:05;;;;;;;12.78;7.12;;;;;;;10.66;78.13;101493.12;1746775;80;21344;-83
2021/09/23 00:18:32;;;;;;;13.48;7.08;;;;;;;10.73;78.09;101486.36;1773978;80;21716;-83
2021/09/23 00:21:02;;;;;;;16.60;7.50;;;;;;;10.76;78.08;101474.64;1773779;80;21026;-83
2021/09/23 00:23:28;;;;;;;14.43;6.55;;;;;;;10.74;77.98;101471.94;1773632;80;21651;-83
2021/09/23 00:25:55;;;;;;;13.20;7.17;;;;;;;10.70;77.86;101474.88;1773956;79;21774;-84
2021/09/23 00:28:22;;;;;;;16.30;6.80;;;;;;;10.67;78.00;101479.14;1774044;80;21085;-83
2021/09/23 00:30:48;;;;;;;17.85;8.30;;;;;;;10.67;78.13;101476.50;1774107;79;21604;-84
2021/09/23 00:33:16;;;;;;;14.28;7.42;;;;;;;10.65;78.17;101457.13;1775850;80;21069;-83
2021/09/23 00:35:43;;;;;;;12.35;7.25;;;;;;;10.63;78.12;101453.55;1775957;80;21121;-83
2021/09/23 00:38:10;;;;;;;11.38;7.00;;;;;;;10.61;78.29;101449.53;1776078;80;22348;-83
2021/09/23 00:40:37;;;;;;;14.05;7.25;;;;;;;10.64;78.46;101450.05;1776068;80;21059;-83
2021/09/23 00:43:05;;;;;;;16.70;7.12;;;;;;;10.69;78.65;101444.11;1798936;77;21054;-83
2021/09/23 00:45:32;;;;;;;14.00;7.00;;;;;;;10.78;78.88;101443.55;1846409;77;21106;-85
2021/09/23 00:47:58;;;;;;;17.65;7.83;;;;;;;10.86;78.91;101431.97;1846551;77;21556;-83
2021/09/23 00:50:28;;;;;;;17.98;7.37;;;;;;;10.95;78.94;101440.19;1849749;77;21485;-83
2021/09/23 00:52:55;;;;;;;16.23;7.53;;;;;;;11.03;78.98;101436.06;1846427;77;21101;-84
2021/09/23 00:55:22;;;;;;;14.50;7.65;;;;;;;11.12;79.06;101427.59;1846455;77;21015;-84
2021/09/23 00:57:50;;;;;;;18.17;7.20;;;;;;;11.20;79.04;101429.16;1846115;77;21331;-83
2021/09/23 01:00:22;;;;;;;14.18;7.03;;;;;;;11.27;79.01;101435.11;1844931;77;21019;-84
2021/09/23 01:02:47;;;;;;;14.80;6.65;;;;;;;11.34;79.07;101431.84;1845886;77;22709;-84
2021/09/23 01:05:16;;;;;;;17.27;7.55;;;;;;;11.44;79.25;101423.37;1809110;79;21557;-84
2021/09/23 01:07:47;;;;;;;13.93;6.78;;;;;;;11.54;79.29;101417.08;1846256;77;21046;-83
2021/09/23 01:10:16;;;;;;;17.40;7.47;;;;;;;11.65;79.34;101410.39;1846282;77;21046;-82
2021/09/23 01:12:44;;;;;;;20.30;6.95;;;;;;;11.75;79.32;101408.53;1846250;77;21658;-82
2021/09/23 01:15:13;;;;;;;14.47;6.40;;;;;;;11.85;79.27;101406.63;1846147;77;21750;-82
2021/09/23 01:17:42;;;;;;;16.00;6.78;;;;;;;11.95;79.23;101405.63;1845600;77;21095;-83
2021/09/23 01:20:14;;;;;;;14.95;6.85;;;;;;;12.03;79.16;101398.81;1846263;77;21045;-82
2021/09/23 01:22:39;;;;;;;15.83;6.50;;;;;;;12.10;79.06;101394.62;1845408;77;22241;-83
2021/09/23 01:25:07;;;;;;;17.92;6.78;;;;;;;12.16;78.99;101390.84;1846162;77;21069;-83
2021/09/23 01:27:34;;;;;;;20.17;6.58;;;;;;;12.21;78.92;101382.64;1846337;77;21730;-83
2021/09/23 01:30:02;;;;;;;19.60;7.60;;;;;;;12.27;78.89;101386.76;1846138;77;21035;-83
2021/09/23 01:32:29;;;;;;;18.87;6.22;;;;;;;12.35;78.81;101385.65;1845948;77;21137;-84
2021/09/23 01:34:56;;;;;;;15.58;6.40;;;;;;;12.38;79.03;101370.80;1846218;77;21281;-83
2021/09/23 01:37:22;;;;;;;15.75;6.10;;;;;;;12.44;78.80;101373.63;1846549;77;21014;-84
2021/09/23 01:39:49;;;;;;;21.10;6.20;;;;;;;12.48;78.67;101365.77;1846401;77;22652;-83
2021/09/23 01:42:21;;;;;;;13.60;6.00;;;;;;;12.50;78.58;101354.81;1846158;77;21552;-84
2021/09/23 01:44:44;;;;;;;14.38;6.20;;;;;;;12.53;78.60;101345.23;1845833;77;21077;-84
2021/09/23 01:47:11;;;;;;;13.00;6.30;;;;;;;12.57;78.55;101339.61;1846464;77;21180;-83
2021/09/23 01:49:38;;;;;;;18.23;5.83;;;;;;;12.59;78.50;101335.25;1846407;77;21003;-83
2021/09/23 01:52:08;;;;;;;15.88;6.30;;;;;;;12.61;78.45;101334.86;1846451;77;21722;-84
2021/09/23 01:54:35;;;;;;;15.90;6.10;;;;;;;12.63;78.44;101334.08;1846028;77;21260;-84
2021/09/23 01:57:07;;;;;;;12.47;5.67;;;;;;;12.64;78.33;101313.39;1822070;77;21070;-83
2021/09/23 01:59:35;;;;;;;12.50;5.97;;;;;;;12.67;78.27;101302.44;1846086;77;21051;-84
2021/09/23 02:02:01;;;;;;;13.72;6.17;;;;;;;12.68;78.27;101300.28;1845967;77;21054;-83
2021/09/23 02:04:29;;;;;;;15.30;6.47;;;;;;;12.67;78.17;101290.14;1849848;77;21018;-83
2021/09/23 02:06:58;;;;;;;15.45;6.12;;;;;;;12.65;78.17;101283.94;1846573;77;21650;-83
2021/09/23 02:09:32;;;;;;;15.23;6.58;;;;;;;12.65;78.21;101297.14;1846848;77;21011;-83
2021/09/23 02:11:56;;;;;;;15.58;5.78;;;;;;;12.64;78.19;101288.30;1845999;77;22870;-83
2021/09/23 02:14:27;;;;;;;13.83;5.85;;;;;;;12.66;78.20;101281.74;1846217;77;21113;-84
2021/09/23 02:16:54;;;;;;;11.22;5.72;;;;;;;12.69;78.20;101278.27;1846308;77;22500;-83
2021/09/23 02:19:20;;;;;;;16.10;6.35;;;;;;;12.69;78.17;101281.83;1850800;77;21058;-84
2021/09/23 02:21:48;;;;;;;18.00;7.17;;;;;;;12.68;78.15;101281.78;1846681;77;21104;-84
2021/09/23 02:24:15;;;;;;;19.32;6.25;;;;;;;12.70;78.12;101285.36;1846449;77;21539;-84
2021/09/23 02:26:43;;;;;;;13.45;5.80;;;;;;;12.70;78.10;101286.67;1846296;77;21042;-84
2021/09/23 02:29:10;;;;;;;14.63;6.00;;;;;;;12.70;78.12;101287.56;1846455;77;22452;-84
2021/09/23 02:31:36;;;;;;;13.18;6.40;;;;;;;12.69;78.09;101276.95;1842376;77;21067;-82
2021/09/23 02:34:03;;;;;;;12.03;5.80;;;;;;;12.67;77.98;101265.05;1824092;78;21077;-83
2021/09/23 02:36:30;;;;;;;15.58;6.70;;;;;;;12.62;77.91;101260.96;1824048;78;21047;-83
2021/09/23 02:39:03;;;;;;;15.68;6.12;;;;;;;12.55;77.91;101251.09;1823830;77;21313;-83
2021/09/23 02:41:30;;;;;;;11.35;5.87;;;;;;;12.46;77.84;101246.90;1823414;78;21864;-82
2021/09/23 02:43:57;;;;;;;16.23;6.35;;;;;;;12.39;77.97;101241.91;1824214;78;21047;-83
2021/09/23 02:46:27;;;;;;;11.97;5.53;;;;;;;12.35;78.08;101238.73;1824270;78;21043;-83
2021/09/23 02:48:52;;;;;;;16.62;6.50;;;;;;;12.29;78.18;101240.31;1823397;78;21058;-83
2021/09/23 02:51:21;;;;;;;21.60;7.25;;;;;;;12.27;78.35;101224.86;1824256;78;21082;-83
2021/09/23 02:53:48;;;;;;;14.28;6.22;;;;;;;12.27;78.51;101211.66;1824071;78;21806;-84
2021/09/23 02:56:15;;;;;;;18.23;6.95;;;;;;;12.25;78.52;101198.42;1824211;78;21047;-83
2021/09/23 02:58:47;;;;;;;18.00;6.87;;;;;;;12.24;78.55;101194.02;1829814;78;21568;-84
2021/09/23 03:01:18;;;;;;;17.07;7.03;;;;;;;12.21;78.58;101189.97;1824612;78;21575;-83
2021/09/23 03:03:45;;;;;;;20.27;6.95;;;;;;;12.18;78.62;101181.56;1824321;78;21023;-83
2021/09/23 03:06:12;;;;;;;15.15;6.78;;;;;;;12.16;78.67;101168.75;1824420;78;21742;-83
2021/09/23 03:08:39;;;;;;;20.88;7.17;;;;;;;12.11;78.69;101157.18;1824391;78;21035;-83
2021/09/23 03:11:06;;;;;;;15.68;6.30;;;;;;;12.06;78.76;101158.36;1824496;78;21544;-85
2021/09/23 03:13:33;;;;;;;17.67;7.15;;;;;;;12.02;78.83;101156.95;1824333;78;21470;-83
2021/09/23 03:15:59;;;;;;;14.83;7.17;;;;;;;11.99;78.97;101160.81;1824552;78;21560;-83
2021/09/23 03:18:26;;;;;;;13.48;6.70;;;;;;;11.99;79.10;101156.85;1824225;78;21718;-82
2021/09/23 03:20:53;;;;;;;23.40;7.78;;;;;;;11.97;79.14;101148.02;1824181;78;21074;-82
2021/09/23 03:23:19;;;;;;;12.37;6.37;;;;;;;11.96;79.24;101147.12;1824117;78;21497;-83
2021/09/23 03:25:49;;;;;;;19.42;7.20;;;;;;;11.96;79.34;101147.56;1829067;77;21048;-84
2021/09/23 03:28:20;;;;;;;18.85;7.10;;;;;;;11.95;79.32;101131.25;1824445;78;21059;-83
2021/09/23 03:30:45;;;;;;;24.60;7.70;;;;;;;11.93;79.45;101140.44;1823730;77;21778;-83
2021/09/23 03:33:12;;;;;;;20.85;7.55;;;;;;;11.93;79.57;101140.44;1839401;77;21045;-82
2021/09/23 03:35:38;;;;;;;18.67;7.25;;;;;;;11.94;79.65;101135.64;1846368;77;21058;-83
2021/09/23 03:38:09;;;;;;;14.58;7.58;;;;;;;11.95;79.66;101129.50;1838326;77;21133;-83
2021/09/23 03:40:39;;;;;;;16.82;7.95;;;;;;;11.96;79.77;101135.25;1845943;77;21500;-83
2021/09/23 03:43:03;;;;;;;16.73;7.10;;;;;;;11.99;79.88;101125.20;1845236;77;21894;-83
2021/09/23 03:45:30;;;;;;;18.00;7.20;;;;;;;12.04;80.00;101116.54;1845721;77;21568;-83
2021/09/23 03:47:56;;;;;;;19.42;7.15;;;;;;;12.12;80.15;101118.48;1846371;76;21058;-82
2021/09/23 03:50:23;;;;;;;17.90;7.35;;;;;;;12.17;80.15;101117.73;1846535;77;20991;-83
2021/09/23 03:52:50;;;;;;;20.10;8.13;;;;;;;12.25;80.18;101117.92;1846202;77;21046;-83
2021/09/23 03:55:17;;;;;;;18.67;7.40;;;;;;;12.31;80.20;101111.90;1805661;79;21731;-83
2021/09/23 03:57:45;;;;;;;15.63;6.65;;;;;;;12.36;80.15;101103.23;1805733;79;21133;-82
2021/09/23 04:00:13;;;;;;;16.30;7.22;;;;;;;12.39;80.10;101099.35;1772942;80;21000;-82
2021/09/23 04:02:40;;;;;;;19.05;6.87;;;;;;;12.43;80.09;101101.64;1798039;79;21078;-82
2021/09/23 04:05:07;;;;;;;18.85;7.55;;;;;;;12.46;80.10;101096.41;1770485;79;21081;-83
2021/09/23 04:07:37;;;;;;;27.20;8.30;;;;;;;12.51;80.07;101101.37;1730211;82;22008;-81
2021/09/23 04:10:07;;;;;;;16.55;7.50;;;;;;;12.55;80.06;101091.77;1740418;81;21145;-81
2021/09/23 04:12:34;;;;;;;16.60;7.08;;;;;;;12.58;80.05;101092.73;1777224;79;21133;-82
2021/09/23 04:15:01;;;;;;;20.02;7.95;;;;;;;12.62;80.00;101085.34;1806084;79;21122;-81
2021/09/23 04:17:27;;;;;;;23.60;8.40;;;;;;;12.65;79.99;101073.97;1805906;79;21067;-81
2021/09/23 04:19:54;;;;;;;18.27;6.75;;;;;;;12.67;79.93;101073.58;1770014;81;21736;-82
2021/09/23 04:22:21;;;;;;;21.95;7.85;;;;;;;12.69;79.91;101075.81;1806048;79;21046;-92
2021/09/23 04:24:52;;;;;;;21.15;6.83;;;;;;;12.69;79.84;101065.25;1771738;81;20997;-92
2021/09/23 04:27:37;;;;;;;16.65;6.75;;;;;;;12.69;79.73;101066.97;1770754;80;21035;-91
2021/09/23 04:30:12;;;;;;;18.62;7.00;;;;;;;12.61;79.55;101061.13;1771371;80;21051;-91
2021/09/23 04:32:37;;;;;;;21.10;7.55;;;;;;;12.51;79.45;101048.56;1770956;80;22614;-93
2021/09/23 04:35:05;;;;;;;19.37;7.62;;;;;;;12.43;79.50;101051.03;1771733;80;21565;-90
2021/09/23 04:37:32;;;;;;;21.80;7.75;;;;;;;12.38;79.63;101050.47;1772288;79;21070;-87
2021/09/23 04:40:00;;;;;;;17.48;7.47;;;;;;;12.34;79.69;101049.95;1770366;80;21054;-87
2021/09/23 04:42:31;;;;;;;21.00;8.40;;;;;;;12.29;79.78;101050.27;1762158;80;21063;-88
2021/09/23 04:44:56;;;;;;;18.42;7.83;;;;;;;12.23;79.82;101046.62;1761944;80;21788;-88
2021/09/23 04:47:23;;;;;;;16.12;7.78;;;;;;;12.21;80.02;101052.73;1770365;80;21016;-88
2021/09/23 04:49:54;;;;;;;18.80;7.75;;;;;;;12.22;80.12;101050.57;1770616;80;21149;-84
2021/09/23 04:52:23;;;;;;;17.42;8.15;;;;;;;12.22;80.25;101050.13;1760194;80;21568;-82
2021/09/23 04:54:54;;;;;;;19.37;8.13;;;;;;;12.23;80.25;101051.89;1772589;80;21151;-82
2021/09/23 04:57:21;;;;;;;17.73;7.85;;;;;;;12.24;80.45;101052.38;1771777;80;22532;-83
2021/09/23 04:59:48;;;;;;;24.45;8.15;;;;;;;12.31;80.50;101035.35;1769930;80;21508;-82
2021/09/23 05:02:14;;;;;;;20.92;8.30;;;;;;;12.35;80.46;101018.31;1769996;80;21047;-82
2021/09/23 05:04:44;;;;;;;15.30;7.45;;;;;;;12.38;80.48;101015.72;1758160;81;21103;-82
2021/09/23 05:07:12;;;;;;;21.05;8.95;;;;;;;12.40;80.44;101006.08;1770136;80;21071;-82
2021/09/23 05:09:43;;;;;;;21.27;9.35;;;;;;;12.42;80.42;100995.12;1770078;81;21790;-82
2021/09/23 05:12:10;;;;;;;28.60;9.70;;;;;;;12.44;80.37;100985.52;1770381;80;21707;-83
2021/09/23 05:14:38;;;;;;;24.02;9.65;;;;;;;12.45;80.39;100973.20;1770188;79;20990;-83
2021/09/23 05:17:04;;;;;;;29.02;11.05;;;;;;;12.47;80.49;100975.44;1770843;80;21064;-82
2021/09/23 05:19:32;;;;;;;18.90;9.45;;;;;;;12.52;80.50;100971.55;1770887;79;21035;-89
2021/09/23 05:22:00;;;;;;;25.62;9.83;;;;;;;12.56;80.54;100969.02;1761943;80;21937;-84
2021/09/23 05:24:27;;;;;;;22.07;9.20;;;;;;;12.61;80.52;100971.75;1770813;80;21040;-84
2021/09/23 05:26:54;;;;;;;31.17;10.08;;;;;;;12.67;80.56;100973.21;1771153;80;21064;-84
2021/09/23 05:29:20;;;;;;;25.45;9.15;;;;;;;12.72;80.49;100968.89;1770085;80;21103;-83
2021/09/23 05:31:47;;;;;;;26.27;9.03;;;;;;;12.76;80.51;100966.80;1770922;80;21135;-84
2021/09/23 05:34:14;;;;;;;25.43;9.43;;;;;;;12.82;80.45;100970.86;1769735;79;21749;-84
2021/09/23 05:36:41;;;;;;;24.70;10.20;;;;;;;12.87;80.45;100963.02;1771596;80;21040;-83
2021/09/23 05:39:09;;;;;;;36.15;10.43;;;;;;;12.92;80.41;100960.47;1771481;79;21589;-84
2021/09/23 05:41:41;;;;;;;22.60;9.35;;;;;;;12.97;80.35;100966.71;1769933;80;21041;-83
2021/09/23 05:44:06;;;;;;;27.22;10.08;;;;;;;13.02;80.35;100964.61;1770039;80;21513;-83
2021/09/23 05:46:33;;;;;;;24.43;9.78;;;;;;;13.09;80.34;100971.36;1770129;81;21819;-84
2021/09/23 05:48:59;;;;;;;22.55;9.35;;;;;;;13.14;80.28;100965.73;1770280;81;21071;-83
2021/09/23 05:51:26;;;;;;;27.98;10.13;;;;;;;13.19;80.18;100966.27;1770493;81;21587;-84
2021/09/23 05:53:53;;;;;;;19.98;10.08;;;;;;;13.24;80.15;100961.05;1770265;80;21540;-84
2021/09/23 05:56:20;;;;;;;21.80;10.45;;;;;;;13.30;80.04;100953.66;1771322;80;21071;-84
2021/09/23 05:58:47;;;;;;;26.48;9.25;;;;;;;13.29;79.93;100939.56;1770015;80;21769;-84
2021/09/23 06:01:14;;;;;;;23.80;10.13;;;;;;;13.32;79.95;100938.73;1770478;80;21000;-84
2021/09/23 06:03:41;;;;;;;19.70;9.53;;;;;;;13.35;79.88;100931.75;1772256;79;21051;-84
2021/09/23 06:06:08;;;;;;;20.23;9.98;;;;;;;13.36;79.81;100933.95;1771360;80;21131;-84
2021/09/23 06:08:35;;;;;;;19.77;9.18;;;;;;;13.37;79.81;100932.66;1770346;79;21125;-83
2021/09/23 06:11:01;;;;;;;20.27;10.65;;;;;;;13.40;79.76;100934.45;1770451;79;21734;-83
2021/09/23 06:13:28;;;;;;;14.78;8.90;;;;;;;13.43;79.71;100927.91;1770819;80;21052;-84
2021/09/23 06:15:55;;;;;;;19.98;9.68;;;;;;;13.46;79.65;100929.70;1769360;81;21095;-84
2021/09/23 06:18:22;;;;;;;19.23;9.60;;;;;;;13.50;79.69;100924.94;1769595;79;21063;-85
2021/09/23 06:20:49;;;;;;;24.32;9.10;;;;;;;13.55;79.68;100929.84;1769565;79;21098;-85
2021/09/23 06:23:15;;;;;;;17.62;9.03;;;;;;;13.63;79.56;100933.52;1769744;80;22369;-85
2021/09/23 06:25:42;;;;;;;19.20;9.03;;;;;;;13.68;79.47;100937.10;1769497;81;21293;-83
2021/09/23 06:28:10;;;;;;;20.90;8.65;;;;;;;13.79;79.50;100937.27;1769705;80;21172;-83
2021/09/23 06:30:38;;;;;;;16.95;8.10;;;;;;;13.91;79.43;100922.03;1770052;80;21055;-83
2021/09/23 06:33:05;;;;;;;18.60;8.48;;;;;;;14.05;79.38;100914.27;1770966;79;21047;-82
2021/09/23 06:35:32;;;;;;;17.12;7.80;;;;;;;14.22;79.29;100910.52;1767399;80;21941;-83
2021/09/23 06:37:58;;;;;;;15.72;7.72;;;;;;;14.42;79.14;100911.66;1767446;79;21130;-82
2021/09/23 06:40:25;;;;;;;21.60;7.40;;;;;;;14.63;78.91;100908.39;1805600;79;21043;-83
2021/09/23 06:42:52;;;;;;;19.40;8.38;;;;;;;14.82;78.70;100900.63;1805761;79;21102;-82
2021/09/23 06:45:19;;;;;;;16.10;8.10;;;;;;;15.01;78.42;100904.34;1771500;80;21063;-83
2021/09/23 06:47:45;;;;;;;20.50;8.70;;;;;;;15.19;78.09;100907.16;1805470;79;22619;-83
2021/09/23 06:50:12;;;;;;;19.62;8.58;;;;;;;15.34;77.79;100911.71;1805459;79;21039;-83
2021/09/23 06:52:42;;;;;;;16.02;8.00;;;;;;;15.44;77.49;100903.38;1805233;79;21079;-83
2021/09/23 06:55:10;;;;;;;21.37;8.20;;;;;;;15.46;77.04;100904.28;1804252;79;21078;-83
2021/09/23 06:57:36;;;;;;;20.75;8.58;;;;;;;15.47;76.91;100895.45;1770802;80;21095;-82
2021/09/23 07:00:05;;;;;;;15.25;7.78;;;;;;;15.50;76.81;100896.78;1770498;80;22542;-83
2021/09/23 07:02:32;;;;;;;15.70;7.55;;;;;;;15.52;76.66;100887.98;1806093;78;21027;-82
2021/09/23 07:04:58;;;;;;;18.23;8.10;;;;;;;15.54;76.53;100883.98;1771233;80;21028;-83
2021/09/23 07:07:25;;;;;;;13.72;7.65;;;;;;;15.60;76.49;100882.72;1771245;80;21134;-83
2021/09/23 07:09:53;;;;;;;17.62;8.20;;;;;;;15.68;76.22;100880.11;1803647;79;21054;-83
2021/09/23 07:12:22;;;;;;;17.87;8.43;;;;;;;15.71;76.02;100875.72;1805929;79;21941;-82
2021/09/23 07:14:48;;;;;;;15.28;7.80;;;;;;;15.79;75.93;100869.60;1771167;80;21043;-83
2021/09/23 07:17:15;;;;;;;15.03;7.87;;;;;;;15.86;75.74;100864.75;1805961;79;21067;-85
2021/09/23 07:19:42;;;;;;;15.15;8.45;;;;;;;15.90;75.61;100862.58;1805799;79;21136;-85
2021/09/23 07:22:09;;;;;;;16.93;8.68;;;;;;;15.91;75.35;100855.05;1805505;79;21059;-85
2021/09/23 07:24:38;;;;;;;18.37;7.62;;;;;;;15.89;75.17;100851.50;1804993;79;21787;-85
2021/09/23 07:27:09;;;;;;;15.85;8.35;;;;;;;15.84;75.07;100846.60;1805975;79;21024;-85
2021/09/23 07:29:33;;;;;;;19.73;9.18;;;;;;;15.80;75.02;100853.66;1804044;79;21506;-85
2021/09/23 07:32:00;;;;;;;17.52;8.60;;;;;;;15.76;75.02;100849.67;1805290;79;21114;-82
2021/09/23 07:34:27;;;;;;;19.00;8.53;;;;;;;15.79;74.98;100845.72;1806163;78;21046;-82
2021/09/23 07:36:54;;;;;;;15.83;8.38;;;;;;;15.82;74.99;100839.98;1770688;80;21957;-85
2021/09/23 07:39:21;;;;;;;18.25;8.23;;;;;;;15.86;74.90;100841.77;1770884;79;21072;-85
2021/09/23 07:41:47;;;;;;;17.05;8.28;;;;;;;15.88;74.75;100831.16;1806551;79;21058;-85
2021/09/23 07:44:14;;;;;;;20.12;8.33;;;;;;;15.90;74.68;100821.44;1770536;80;21059;-85
2021/09/23 07:46:42;;;;;;;17.52;8.15;;;;;;;15.89;74.62;100822.30;1806357;79;21047;-85
2021/09/23 07:49:09;;;;;;;19.98;8.48;;;;;;;15.91;74.58;100817.44;1770168;80;21754;-85
2021/09/23 07:51:35;;;;;;;16.00;7.83;;;;;;;15.92;74.46;100811.71;1806259;79;21047;-85
2021/09/23 07:54:02;;;;;;;18.07;8.75;;;;;;;15.94;74.54;100804.63;1770232;81;21064;-85
2021/09/23 07:56:29;;;;;;;21.60;10.43;;;;;;;16.01;74.47;100796.23;1806202;79;21517;-85
2021/09/23 07:58:55;;;;;;;18.30;9.15;;;;;;;16.07;74.46;100786.53;1770233;81;21070;-85
2021/09/23 08:01:22;;;;;;;22.50;9.70;;;;;;;16.12;74.33;100786.53;1806342;79;21687;-85
2021/09/23 08:03:50;;;;;;;18.73;9.03;;;;;;;16.18;74.23;100779.94;1770283;81;21513;-85
2021/09/23 08:06:17;;;;;;;14.20;8.38;;;;;;;16.21;74.05;100777.72;1770320;80;21032;-85
2021/09/23 08:08:43;;;;;;;18.50;7.78;;;;;;;16.17;73.92;100774.16;1806378;79;21521;-85
2021/09/23 08:11:10;;;;;;;18.77;8.13;;;;;;;16.17;73.99;100774.61;1770503;80;21084;-85
2021/09/23 08:13:37;;;;;;;16.73;8.83;;;;;;;16.20;73.97;100771.94;1806432;79;21748;-84
2021/09/23 08:16:04;;;;;;;16.02;8.33;;;;;;;16.24;73.92;100764.00;1770223;81;21106;-85
2021/09/23 08:18:30;;;;;;;15.88;7.25;;;;;;;16.37;73.90;100758.69;1806331;79;21066;-84
2021/09/23 08:20:57;;;;;;;16.85;8.25;;;;;;;16.47;73.85;100752.52;1770467;81;21036;-85
2021/09/23 08:23:24;;;;;;;20.68;13.85;;;;;;;16.62;73.85;100756.51;1806503;79;21579;-82
2021/09/23 08:25:52;;;;;;;19.65;11.12;;;;;;;16.82;73.64;100744.59;1770361;81;21732;-82
2021/09/23 08:28:23;;;;;;;29.12;15.30;;;;;;;17.05;73.48;100731.70;1770346;81;21016;-83
2021/09/23 08:30:48;;;;;;;19.95;11.48;;;;;;;17.24;73.06;100713.47;1770389;80;21554;-83
2021/09/23 08:33:15;;;;;;;23.12;12.23;;;;;;;17.38;72.83;100703.23;1806225;79;21078;-84
2021/09/23 08:35:42;;;;;;;17.20;9.80;;;;;;;17.51;72.52;100694.30;1771804;80;21067;-84
2021/09/23 08:38:08;;;;;;;23.67;14.03;;;;;;;17.55;72.20;100688.09;1772234;80;22269;-83
2021/09/23 08:40:35;;;;;;;20.52;13.58;;;;;;;17.49;71.65;100692.09;1771917;79;21493;-83
2021/09/23 08:43:02;;;;;;;25.05;14.93;;;;;;;17.33;71.61;100682.42;1772079;79;21584;-83
2021/09/23 08:45:28;;;;;;;18.98;11.25;;;;;;;17.17;71.52;100689.56;1770269;80;21071;-83
2021/09/23 08:47:55;;;;;;;26.27;13.00;;;;;;;16.97;71.35;100694.92;1772161;80;21066;-83
2021/09/23 08:50:22;;;;;;;19.67;10.60;;;;;;;16.78;71.56;100704.25;1805823;79;22598;-83
2021/09/23 08:52:49;;;;;;;13.85;9.03;;;;;;;16.68;71.80;100692.72;1771855;80;38073;-83
2021/09/23 08:55:24;;;;;;;15.55;8.88;;;;;;;16.68;71.89;100694.50;1805459;79;21572;-83
2021/09/23 08:57:51;;;;;;;12.88;8.00;;;;;;;16.82;72.21;100682.53;1772500;80;21071;-83
2021/09/23 09:00:21;;;;;;;17.23;8.08;;;;;;;16.95;71.95;100679.00;1771995;80;20985;-84
2021/09/23 09:03:06;;;;;;;11.33;7.85;;;;;;;17.00;71.95;100670.98;1781772;79;21787;-84
2021/09/23 09:05:34;;;;;;;17.55;7.87;;;;;;;16.97;71.61;100675.88;1689748;84;21066;-84
2021/09/23 09:08:10;;;;;;;16.40;8.20;;;;;;;16.83;71.45;100682.54;1689417;84;21124;-84
2021/09/23 09:10:36;;;;;;;18.20;10.75;;;;;;;16.75;71.42;100678.11;1689320;83;21106;-83
2021/09/23 09:13:08;;;;;;;17.57;12.53;;;;;;;16.72;71.64;100673.66;1689748;83;21105;-84
2021/09/23 09:15:42;;;;;;;15.08;10.08;;;;;;;16.84;71.86;100670.16;1689784;84;21768;-84
2021/09/23 09:18:23;;;;;;;19.37;9.45;;;;;;;17.06;71.84;100649.69;1689550;84;21133;-84
2021/09/23 09:21:04;;;;;;;11.97;9.00;;;;;;;17.29;71.67;100649.63;1689974;83;21050;-84
2021/09/23 09:23:42;;;;;;;19.25;10.05;;;;;;;17.42;71.24;100640.70;1690205;84;21141;-83
2021/09/23 09:26:12;;;;;;;19.73;9.90;;;;;;;17.43;70.92;100642.91;1689512;83;21121;-84
2021/09/23 09:28:50;;;;;;;13.25;8.63;;;;;;;17.43;70.74;100637.13;1666578;84;21770;-84
2021/09/23 09:31:17;;;;;;;15.98;10.08;;;;;;;17.41;70.58;100616.75;1689908;84;21074;-84
2021/09/23 09:33:46;;;;;;;32.13;21.40;;;;;;;17.36;70.42;100626.10;1691232;82;21138;-84
2021/09/23 09:36:33;;;;;;;27.45;18.67;;;;;;;17.35;70.47;100622.11;1699579;84;21296;-84
2021/09/23 09:39:05;;;;;;;24.27;16.32;;;;;;;17.29;70.31;100617.70;1699822;83;21045;-83
2021/09/23 09:41:40;;;;;;;21.35;15.72;;;;;;;17.23;70.37;100614.62;1753683;79;21776;-84
2021/09/23 09:44:09;;;;;;;24.13;15.37;;;;;;;17.23;70.42;100619.95;1804988;79;21533;-84
2021/09/23 09:46:42;;;;;;;19.62;13.18;;;;;;;17.20;70.26;100610.64;1771444;80;22237;-83
2021/09/23 09:49:08;;;;;;;26.53;17.37;;;;;;;17.14;70.28;100605.36;1768779;80;21691;-83
2021/09/23 09:51:42;;;;;;;30.00;23.35;;;;;;;17.10;70.35;100611.59;1803696;79;21066;-83
2021/09/23 09:54:11;;;;;;;28.07;17.10;;;;;;;17.06;70.30;100601.83;1769159;80;21751;-84
2021/09/23 09:56:40;;;;;;;28.52;17.52;;;;;;;17.09;70.34;100603.15;1767303;80;21071;-84
2021/09/23 09:59:16;;;;;;;22.80;14.78;;;;;;;17.12;70.30;100591.61;1805133;79;21569;-84
2021/09/23 10:01:45;;;;;;;20.80;12.90;;;;;;;17.21;70.28;100588.91;1771252;80;21313;-83
2021/09/23 10:04:12;;;;;;;22.60;15.50;;;;;;;17.22;70.03;100584.91;1770594;80;21060;-83
2021/09/23 10:06:40;;;;;;;22.07;11.83;;;;;;;17.18;69.94;100585.83;1769183;80;21738;-83
2021/09/23 10:09:08;;;;;;;20.35;12.68;;;;;;;17.17;69.99;100575.19;1770961;80;21048;-84
2021/09/23 10:11:42;;;;;;;22.77;15.58;;;;;;;17.19;69.97;100568.08;1758101;80;21033;-84
2021/09/23 10:14:13;;;;;;;40.10;23.90;;;;;;;17.24;70.05;100559.19;1770664;80;21257;-84
2021/09/23 10:16:40;;;;;;;28.83;17.35;;;;;;;17.33;69.97;100554.73;1767845;80;21082;-84
2021/09/23 10:19:07;;;;;;;34.43;19.55;;;;;;;17.39;69.80;100548.03;1803937;79;21691;-84
2021/09/23 10:21:34;;;;;;;29.02;17.55;;;;;;;17.45;69.76;100550.19;1805757;78;21043;-84
2021/09/23 10:24:02;;;;;;;25.27;15.43;;;;;;;17.63;69.85;100541.66;1771189;80;21151;-84
2021/09/23 10:26:31;;;;;;;26.42;16.32;;;;;;;17.80;69.58;100539.74;1783322;79;21028;-84
2021/09/23 10:28:59;;;;;;;22.45;14.65;;;;;;;17.79;69.03;100532.67;1805847;79;21117;-83
2021/09/23 10:31:35;;;;;;;54.65;37.58;;;;;;;17.76;68.90;100525.16;1770432;80;21336;-84
2021/09/23 10:34:05;;;;;;;27.73;19.25;;;;;;;17.76;68.99;100514.05;1799895;79;21115;-84
2021/09/23 10:36:33;;;;;;;43.02;31.85;;;;;;;17.80;68.98;100515.78;1771030;80;21098;-83
2021/09/23 10:39:04;;;;;;;25.65;17.67;;;;;;;17.79;68.84;100513.12;1770177;80;21059;-83
2021/09/23 10:41:32;;;;;;;21.62;12.68;;;;;;;17.74;68.71;100505.20;1770574;80;21012;-84
2021/09/23 10:43:59;;;;;;;28.02;19.75;;;;;;;17.67;68.76;100501.69;1759644;80;22654;-83
2021/09/23 10:46:26;;;;;;;15.98;11.57;;;;;;;17.64;68.67;100504.39;1761433;80;21023;-84
2021/09/23 10:48:54;;;;;;;25.15;14.50;;;;;;;17.60;68.70;100489.31;1771032;79;21083;-84
2021/09/23 10:51:20;;;;;;;18.17;10.20;;;;;;;17.61;68.79;100486.23;1759142;80;21016;-84
2021/09/23 10:53:56;;;;;;;15.48;10.68;;;;;;;17.62;68.84;100483.98;1771006;80;21051;-84
2021/09/23 10:56:20;;;;;;;15.65;10.80;;;;;;;17.63;68.70;100475.13;1767747;80;22575;-83
2021/09/23 10:58:50;;;;;;;19.95;10.80;;;;;;;17.61;68.61;100478.25;1770413;80;21054;-84
2021/09/23 11:01:23;;;;;;;14.43;8.63;;;;;;;17.60;68.62;100462.70;1736347;80;21013;-83
2021/09/23 11:03:49;;;;;;;17.87;8.23;;;;;;;17.62;68.59;100456.04;1770872;80;21011;-84
2021/09/23 11:06:18;;;;;;;17.15;8.65;;;;;;;17.55;68.59;100457.89;1768909;80;20992;-83
2021/09/23 11:08:48;;;;;;;17.10;8.43;;;;;;;17.52;68.68;100444.59;1770748;80;21672;-84
2021/09/23 11:11:16;;;;;;;17.70;8.85;;;;;;;17.49;68.70;100447.27;1771099;80;21125;-84
2021/09/23 11:13:43;;;;;;;14.55;8.35;;;;;;;17.42;68.61;100435.81;1770941;79;21055;-84
2021/09/23 11:16:11;;;;;;;15.53;9.28;;;;;;;17.33;68.75;100427.03;1768103;81;21107;-84
2021/09/23 11:18:39;;;;;;;19.37;9.58;;;;;;;17.30;68.79;100427.91;1770202;80;21047;-84
2021/09/23 11:21:06;;;;;;;14.78;8.63;;;;;;;17.25;68.84;100416.00;1771123;80;21763;-83